createdAt,value
2022-08-01T00:01:59.376Z,19.03
2022-08-01T00:04:25.902Z,19.02
2022-08-01T00:06:52.371Z,18.94
2022-08-01T00:09:23.862Z,18.83
2022-08-01T00:12:06.585Z,18.81
2022-08-01T00:14:33.273Z,18.88
2022-08-01T00:17:05.132Z,18.92
2022-08-01T00:19:34.035Z,18.96
2022-08-01T00:22:00.748Z,18.98
2022-08-01T00:24:27.212Z,18.92
2022-08-01T00:26:53.707Z,18.91
2022-08-01T00:29:49.951Z,18.84
2022-08-01T00:32:07.185Z,18.81
2022-08-01T00:34:34.343Z,18.80
2022-08-01T00:37:00.839Z,18.78
2022-08-01T00:39:27.307Z,18.81
2022-08-01T00:41:59.335Z,18.81
2022-08-01T00:44:27.207Z,18.77
2022-08-01T00:46:53.727Z,18.77
2022-08-01T00:49:20.328Z,18.71
2022-08-01T00:51:46.858Z,18.71
2022-08-01T00:54:13.453Z,18.63
2022-08-01T00:56:43.815Z,18.59
2022-08-01T00:59:12.105Z,18.57
2022-08-01T01:01:40.834Z,18.43
2022-08-01T01:04:13.134Z,18.48
2022-08-01T01:06:39.589Z,18.48
2022-08-01T01:09:24.861Z,18.49
2022-08-01T01:12:04.537Z,18.54
2022-08-01T01:14:33.921Z,18.57
2022-08-01T01:17:01.478Z,18.57
2022-08-01T01:19:31.322Z,18.63
2022-08-01T01:22:18.813Z,18.64
2022-08-01T01:24:54.469Z,18.60
2022-08-01T01:27:40.535Z,18.52
2022-08-01T01:30:07.293Z,18.49
2022-08-01T01:32:39.387Z,18.53
2022-08-01T01:35:08.019Z,18.54
2022-08-01T01:37:35.504Z,18.50
2022-08-01T01:40:03.815Z,18.47
2022-08-01T01:42:31.665Z,18.42
2022-08-01T01:44:59.135Z,18.38
2022-08-01T01:47:26.623Z,18.32
2022-08-01T01:49:54.347Z,18.33
2022-08-01T01:52:21.186Z,18.36
2022-08-01T01:54:49.255Z,18.36
2022-08-01T01:57:16.413Z,18.36
2022-08-01T01:59:43.533Z,18.36
2022-08-01T02:02:11.177Z,18.36
2022-08-01T02:04:40.947Z,18.38
2022-08-01T02:07:09.936Z,18.37
2022-08-01T02:09:37.706Z,18.33
2022-08-01T02:12:08.726Z,18.35
2022-08-01T02:14:36.577Z,18.39
2022-08-01T02:17:05.134Z,18.37
2022-08-01T02:19:31.915Z,18.40
2022-08-01T02:22:01.556Z,18.41
2022-08-01T02:24:39.954Z,18.46
2022-08-01T02:27:09.725Z,18.47
2022-08-01T02:29:43.638Z,18.51
2022-08-01T02:32:13.146Z,18.54
2022-08-01T02:34:40.631Z,18.54
2022-08-01T02:37:07.639Z,18.51
2022-08-01T02:39:36.905Z,18.46
2022-08-01T02:42:06.161Z,18.46
2022-08-01T02:44:36.290Z,18.42
2022-08-01T02:47:03.696Z,18.41
2022-08-01T02:49:36.467Z,18.28
2022-08-01T02:52:06.202Z,18.28
2022-08-01T02:54:33.949Z,18.30
2022-08-01T02:57:01.735Z,18.31
2022-08-01T02:59:28.927Z,18.23
2022-08-01T03:01:57.292Z,18.18
2022-08-01T03:04:26.009Z,18.23
2022-08-01T03:06:54.162Z,18.23
2022-08-01T03:09:21.085Z,18.28
2022-08-01T03:11:49.054Z,18.27
2022-08-01T03:14:16.063Z,18.31
2022-08-01T03:16:43.456Z,18.34
2022-08-01T03:19:11.151Z,18.30
2022-08-01T03:21:39.357Z,18.27
2022-08-01T03:24:06.486Z,18.24
2022-08-01T03:26:34.926Z,18.26
2022-08-01T03:29:07.382Z,18.29
2022-08-01T03:31:38.190Z,18.28
2022-08-01T03:34:06.126Z,18.29
2022-08-01T03:36:34.728Z,18.29
2022-08-01T03:39:03.649Z,18.30
2022-08-01T03:41:33.518Z,18.27
2022-08-01T03:44:05.004Z,18.19
2022-08-01T03:46:36.352Z,18.14
2022-08-01T03:49:07.085Z,18.10
2022-08-01T03:51:34.229Z,18.09
2022-08-01T03:54:01.840Z,18.10
2022-08-01T03:56:28.749Z,18.02
2022-08-01T03:58:55.350Z,18.04
2022-08-01T04:01:22.390Z,18.06
2022-08-01T04:03:49.057Z,18.07
2022-08-01T04:06:16.597Z,18.06
2022-08-01T04:08:43.127Z,18.09
2022-08-01T04:11:10.138Z,18.12
2022-08-01T04:13:38.526Z,18.08
2022-08-01T04:16:05.433Z,18.13
2022-08-01T04:18:31.920Z,18.14
2022-08-01T04:20:59.000Z,18.13
2022-08-01T04:23:27.172Z,18.17
2022-08-01T04:25:54.252Z,18.20
2022-08-01T04:28:22.558Z,18.24
2022-08-01T04:30:51.178Z,18.27
2022-08-01T04:33:19.569Z,18.30
2022-08-01T04:36:01.582Z,18.34
2022-08-01T04:38:29.721Z,18.37
2022-08-01T04:40:57.405Z,18.35
2022-08-01T04:43:24.105Z,18.39
2022-08-01T04:45:51.608Z,18.41
2022-08-01T04:48:20.346Z,18.43
2022-08-01T04:50:49.473Z,18.38
2022-08-01T04:53:17.902Z,18.39
2022-08-01T04:55:45.280Z,18.47
2022-08-01T04:58:16.123Z,18.47
2022-08-01T05:00:44.382Z,18.49
2022-08-01T05:03:10.879Z,18.52
2022-08-01T05:05:37.420Z,18.57
2022-08-01T05:08:04.049Z,18.63
2022-08-01T05:10:31.825Z,18.64
2022-08-01T05:12:58.462Z,18.69
2022-08-01T05:15:25.083Z,18.72
2022-08-01T05:17:51.769Z,18.78
2022-08-01T05:20:18.254Z,18.82
2022-08-01T05:22:44.812Z,18.89
2022-08-01T05:25:11.287Z,18.83
2022-08-01T05:27:41.649Z,18.81
2022-08-01T05:30:09.410Z,18.86
2022-08-01T05:32:36.394Z,18.91
2022-08-01T05:35:02.937Z,18.88
2022-08-01T05:37:29.418Z,18.90
2022-08-01T05:39:55.960Z,18.87
2022-08-01T05:42:22.455Z,18.99
2022-08-01T05:44:49.027Z,19.08
2022-08-01T05:47:15.470Z,19.07
2022-08-01T05:49:42.007Z,19.27
2022-08-01T05:52:08.898Z,19.38
2022-08-01T05:54:35.722Z,19.37
2022-08-01T05:57:02.816Z,19.24
2022-08-01T05:59:29.851Z,19.25
2022-08-01T06:01:56.588Z,19.25
2022-08-01T06:04:23.328Z,19.24
2022-08-01T06:06:49.832Z,19.31
2022-08-01T06:09:16.314Z,19.21
2022-08-01T06:11:42.788Z,19.23
2022-08-01T06:14:09.247Z,19.21
2022-08-01T06:16:35.838Z,19.19
2022-08-01T06:19:02.361Z,19.25
2022-08-01T06:21:28.865Z,19.20
2022-08-01T06:23:55.412Z,19.07
2022-08-01T06:26:22.025Z,19.02
2022-08-01T06:28:48.529Z,18.92
2022-08-01T06:31:16.674Z,18.98
2022-08-01T06:33:43.134Z,19.01
2022-08-01T06:36:10.414Z,19.04
2022-08-01T06:38:37.022Z,19.13
2022-08-01T06:41:03.530Z,19.25
2022-08-01T06:43:30.140Z,19.34
2022-08-01T06:45:56.738Z,19.37
2022-08-01T06:48:23.816Z,19.46
2022-08-01T06:50:50.344Z,19.47
2022-08-01T06:53:16.869Z,19.55
2022-08-01T06:55:43.356Z,19.60
2022-08-01T06:58:09.946Z,19.66
2022-08-01T07:00:36.828Z,19.68
2022-08-01T07:03:03.350Z,19.71
2022-08-01T07:05:32.028Z,19.62
2022-08-01T07:07:59.200Z,19.64
2022-08-01T07:10:25.692Z,19.57
2022-08-01T07:12:52.241Z,19.55
2022-08-01T07:15:21.619Z,19.68
2022-08-01T07:17:48.223Z,19.57
2022-08-01T07:20:16.518Z,19.65
2022-08-01T07:22:43.252Z,19.66
2022-08-01T07:25:09.852Z,19.81
2022-08-01T07:27:36.832Z,19.88
2022-08-01T07:30:03.755Z,19.90
2022-08-01T07:32:30.469Z,19.99
2022-08-01T07:34:57.126Z,20.07
2022-08-01T07:37:48.044Z,20.04
2022-08-01T07:40:11.759Z,19.86
2022-08-01T07:42:38.427Z,19.80
2022-08-01T07:45:05.117Z,19.85
2022-08-01T07:47:31.703Z,19.83
2022-08-01T07:50:01.892Z,20.01
2022-08-01T07:52:28.418Z,20.07
2022-08-01T07:54:55.113Z,20.10
2022-08-01T07:57:21.646Z,20.07
2022-08-01T07:59:48.100Z,20.22
2022-08-01T08:02:14.798Z,20.36
2022-08-01T08:04:45.689Z,20.40
2022-08-01T08:07:15.069Z,20.26
2022-08-01T08:09:41.616Z,20.33
2022-08-01T08:12:08.636Z,20.25
2022-08-01T08:14:35.476Z,20.23
2022-08-01T08:17:02.310Z,20.12
2022-08-01T08:19:37.524Z,20.08
2022-08-01T08:22:05.969Z,20.06
2022-08-01T08:24:32.701Z,20.06
2022-08-01T08:26:59.901Z,20.05
2022-08-01T08:29:28.035Z,19.99
2022-08-01T08:31:57.039Z,20.00
2022-08-01T08:34:24.253Z,20.02
2022-08-01T08:36:51.054Z,20.14
2022-08-01T08:39:19.925Z,20.15
2022-08-01T08:41:49.515Z,20.39
2022-08-01T08:44:17.475Z,20.47
2022-08-01T08:46:45.429Z,20.86
2022-08-01T08:49:13.489Z,20.80
2022-08-01T08:51:41.000Z,21.17
2022-08-01T08:54:08.323Z,21.24
2022-08-01T08:56:35.951Z,21.22
2022-08-01T08:59:03.544Z,21.06
2022-08-01T09:01:33.564Z,20.99
2022-08-01T09:04:00.212Z,21.12
2022-08-01T09:06:26.736Z,21.11
2022-08-01T09:08:54.897Z,21.22
2022-08-01T09:11:22.684Z,21.17
2022-08-01T09:14:06.707Z,21.21
2022-08-01T09:16:34.238Z,21.29
2022-08-01T09:19:16.271Z,21.42
2022-08-01T09:21:58.089Z,21.68
2022-08-01T09:24:30.453Z,21.63
2022-08-01T09:26:58.203Z,21.68
2022-08-01T09:29:38.300Z,21.68
2022-08-01T09:32:08.385Z,21.92
2022-08-01T09:34:40.727Z,22.09
2022-08-01T09:37:08.079Z,22.03
2022-08-01T09:39:38.523Z,22.01
2022-08-01T09:42:29.112Z,22.22
2022-08-01T09:44:56.370Z,22.26
2022-08-01T09:47:25.311Z,22.24
2022-08-01T09:49:57.373Z,22.26
2022-08-01T09:52:29.076Z,22.14
2022-08-01T09:55:06.581Z,22.37
2022-08-01T09:57:33.373Z,22.57
2022-08-01T10:00:01.787Z,22.53
2022-08-01T10:02:28.582Z,22.71
2022-08-01T10:05:00.004Z,22.72
2022-08-01T10:07:43.681Z,22.89
2022-08-01T10:10:15.196Z,22.86
2022-08-01T10:12:45.215Z,22.78
2022-08-01T10:15:12.554Z,22.95
2022-08-01T10:17:50.649Z,22.92
2022-08-01T10:20:28.927Z,22.94
2022-08-01T10:22:59.441Z,23.07
2022-08-01T10:25:42.260Z,22.96
2022-08-01T10:28:24.927Z,22.74
2022-08-01T10:30:52.101Z,22.73
2022-08-01T10:33:50.855Z,22.87
2022-08-01T10:36:09.840Z,22.91
2022-08-01T10:38:37.280Z,23.02
2022-08-01T10:41:06.265Z,23.00
2022-08-01T10:43:33.480Z,22.93
2022-08-01T10:46:02.717Z,23.00
2022-08-01T10:48:40.994Z,23.09
2022-08-01T10:51:17.789Z,23.13
2022-08-01T10:53:50.949Z,22.95
2022-08-01T10:56:21.475Z,22.89
2022-08-01T10:59:01.424Z,22.85
2022-08-01T11:01:31.449Z,22.76
2022-08-01T11:04:01.337Z,23.17
2022-08-01T11:06:34.452Z,23.30
2022-08-01T11:09:06.364Z,23.53
2022-08-01T11:11:37.600Z,23.79
2022-08-01T11:14:09.307Z,23.77
2022-08-01T11:16:37.395Z,23.93
2022-08-01T11:19:04.762Z,24.30
2022-08-01T11:21:56.897Z,24.59
2022-08-01T11:24:44.903Z,24.92
2022-08-01T11:27:31.579Z,24.74
2022-08-01T11:30:09.227Z,25.42
2022-08-01T11:33:10.585Z,25.47
2022-08-01T11:35:37.401Z,26.07
2022-08-01T11:38:31.163Z,25.84
2022-08-01T11:41:17.630Z,26.33
2022-08-01T11:43:59.461Z,26.67
2022-08-01T11:46:44.649Z,27.47
2022-08-01T11:49:25.782Z,27.71
2022-08-01T11:52:04.476Z,27.69
2022-08-01T11:54:34.792Z,27.92
2022-08-01T11:57:05.437Z,27.72
2022-08-01T12:00:03.580Z,27.24
2022-08-01T12:02:35.309Z,26.91
2022-08-01T12:05:03.417Z,27.75
2022-08-01T12:07:32.990Z,27.43
2022-08-01T12:10:05.379Z,27.01
2022-08-01T12:12:32.434Z,26.50
2022-08-01T12:15:00.611Z,26.43
2022-08-01T12:17:34.244Z,26.67
2022-08-01T12:20:00.971Z,26.80
2022-08-01T12:22:27.534Z,26.55
2022-08-01T12:24:54.191Z,26.52
2022-08-01T12:27:31.110Z,26.75
2022-08-01T12:29:59.142Z,26.68
2022-08-01T12:32:35.619Z,27.10
2022-08-01T12:35:17.858Z,27.09
2022-08-01T12:37:45.255Z,27.53
2022-08-01T12:40:13.157Z,27.94
2022-08-01T12:42:41.058Z,28.07
2022-08-01T12:45:09.752Z,27.93
2022-08-01T12:47:37.327Z,28.21
2022-08-01T12:50:05.012Z,28.53
2022-08-01T12:52:32.621Z,28.56
2022-08-01T12:55:03.204Z,28.62
2022-08-01T12:57:33.544Z,28.95
2022-08-01T13:00:10.382Z,29.19
2022-08-01T13:02:37.922Z,29.18
2022-08-01T13:05:05.101Z,28.04
2022-08-01T13:07:45.629Z,27.97
2022-08-01T13:10:13.055Z,28.06
2022-08-01T13:12:40.474Z,28.44
2022-08-01T13:15:24.499Z,28.42
2022-08-01T13:17:51.956Z,28.39
2022-08-01T13:20:34.947Z,27.96
2022-08-01T13:23:11.679Z,28.73
2022-08-01T13:25:54.895Z,29.00
2022-08-01T13:28:23.349Z,28.57
2022-08-01T13:30:57.576Z,28.11
2022-08-01T13:33:24.668Z,27.42
2022-08-01T13:35:53.001Z,27.88
2022-08-01T13:38:19.661Z,28.45
2022-08-01T13:40:46.533Z,28.25
2022-08-01T13:43:13.165Z,28.26
2022-08-01T13:45:40.861Z,28.24
2022-08-01T13:48:18.573Z,28.43
2022-08-01T13:50:53.404Z,28.64
2022-08-01T13:53:28.560Z,29.10
2022-08-01T13:55:55.190Z,29.18
2022-08-01T13:58:21.684Z,28.91
2022-08-01T14:00:48.271Z,29.44
2022-08-01T14:03:15.023Z,29.61
2022-08-01T14:05:41.570Z,29.51
2022-08-01T14:08:08.095Z,29.36
2022-08-01T14:10:35.833Z,28.59
2022-08-01T14:13:02.393Z,29.02
2022-08-01T14:15:39.243Z,28.68
2022-08-01T14:18:07.165Z,28.67
2022-08-01T14:20:38.057Z,28.93
2022-08-01T14:23:04.695Z,28.50
2022-08-01T14:26:00.273Z,28.20
2022-08-01T14:28:22.033Z,28.14
2022-08-01T14:30:48.523Z,28.23
2022-08-01T14:33:15.138Z,28.19
2022-08-01T14:36:01.753Z,28.07
2022-08-01T14:38:33.557Z,27.71
2022-08-01T14:41:01.659Z,27.62
2022-08-01T14:43:33.273Z,27.39
2022-08-01T14:46:00.652Z,27.49
2022-08-01T14:48:27.286Z,27.59
2022-08-01T14:50:53.822Z,27.53
2022-08-01T14:53:20.602Z,27.14
2022-08-01T14:55:47.608Z,27.24
2022-08-01T14:58:14.143Z,27.34
2022-08-01T15:00:40.818Z,27.27
2022-08-01T15:03:07.323Z,27.10
2022-08-01T15:05:34.054Z,27.19
2022-08-01T15:08:00.708Z,27.10
2022-08-01T15:10:27.993Z,26.98
2022-08-01T15:12:54.623Z,27.07
2022-08-01T15:15:21.167Z,27.08
2022-08-01T15:17:47.668Z,26.97
2022-08-01T15:20:14.204Z,26.97
2022-08-01T15:22:40.773Z,26.88
2022-08-01T15:25:07.452Z,26.83
2022-08-01T15:27:34.013Z,26.70
2022-08-01T15:30:00.751Z,26.80
2022-08-01T15:32:27.311Z,26.98
2022-08-01T15:34:53.931Z,26.98
2022-08-01T15:37:21.691Z,26.89
2022-08-01T15:39:48.443Z,26.69
2022-08-01T15:42:20.131Z,26.63
2022-08-01T15:44:51.982Z,26.58
2022-08-01T15:47:18.419Z,26.33
2022-08-01T15:49:44.960Z,26.30
2022-08-01T15:52:21.751Z,26.09
2022-08-01T15:54:49.703Z,26.21
2022-08-01T15:57:16.268Z,25.92
2022-08-01T15:59:42.855Z,25.82
2022-08-01T16:02:09.865Z,25.79
2022-08-01T16:04:38.832Z,25.68
2022-08-01T16:07:06.300Z,25.74
2022-08-01T16:09:33.154Z,25.76
2022-08-01T16:11:59.706Z,25.79
2022-08-01T16:14:26.207Z,25.78
2022-08-01T16:16:55.032Z,25.61
2022-08-01T16:19:21.917Z,25.46
2022-08-01T16:21:48.610Z,25.14
2022-08-01T16:24:15.195Z,25.11
2022-08-01T16:26:43.205Z,25.07
2022-08-01T16:29:09.818Z,24.95
2022-08-01T16:31:37.246Z,24.96
2022-08-01T16:34:18.958Z,24.89
2022-08-01T16:36:50.198Z,24.74
2022-08-01T16:39:22.478Z,24.73
2022-08-01T16:41:49.762Z,24.60
2022-08-01T16:44:29.084Z,24.41
2022-08-01T16:47:01.532Z,24.34
2022-08-01T16:49:28.152Z,24.21
2022-08-01T16:51:54.751Z,24.09
2022-08-01T16:54:24.988Z,24.07
2022-08-01T16:56:52.810Z,23.95
2022-08-01T16:59:19.533Z,24.00
2022-08-01T17:02:00.026Z,23.89
2022-08-01T17:04:28.339Z,23.85
2022-08-01T17:06:55.071Z,23.63
2022-08-01T17:09:21.635Z,23.55
2022-08-01T17:11:48.588Z,23.56
2022-08-01T17:14:15.255Z,23.53
2022-08-01T17:16:41.909Z,23.52
2022-08-01T17:19:08.429Z,23.45
2022-08-01T17:21:36.351Z,23.44
2022-08-01T17:24:04.712Z,23.37
2022-08-01T17:26:32.023Z,23.35
2022-08-01T17:28:58.566Z,23.21
2022-08-01T17:31:25.032Z,23.19
2022-08-01T17:33:54.813Z,23.11
2022-08-01T17:36:21.760Z,23.03
2022-08-01T17:38:48.483Z,23.08
2022-08-01T17:41:15.099Z,23.05
2022-08-01T17:43:41.644Z,22.95
2022-08-01T17:46:08.462Z,22.96
2022-08-01T17:48:35.085Z,22.91
2022-08-01T17:51:01.555Z,22.78
2022-08-01T17:53:28.095Z,22.77
2022-08-01T17:55:57.890Z,22.76
2022-08-01T17:58:49.919Z,22.74
2022-08-01T18:01:11.909Z,22.63
2022-08-01T18:03:41.401Z,22.51
2022-08-01T18:06:08.884Z,22.44
2022-08-01T18:08:35.536Z,22.40
2022-08-01T18:11:02.114Z,22.38
2022-08-01T18:13:29.461Z,22.37
2022-08-01T18:15:56.599Z,22.33
2022-08-01T18:18:33.768Z,22.21
2022-08-01T18:21:03.092Z,22.16
2022-08-01T18:23:29.653Z,22.10
2022-08-01T18:25:56.471Z,22.10
2022-08-01T18:28:32.767Z,22.08
2022-08-01T18:31:02.049Z,22.02
2022-08-01T18:33:28.661Z,22.00
2022-08-01T18:35:57.716Z,21.99
2022-08-01T18:38:29.332Z,21.89
2022-08-01T18:40:56.275Z,21.88
2022-08-01T18:43:22.778Z,21.87
2022-08-01T18:45:49.311Z,21.81
2022-08-01T18:48:15.876Z,21.73
2022-08-01T18:50:42.453Z,21.68
2022-08-01T18:53:09.100Z,21.66
2022-08-01T18:55:35.615Z,21.60
2022-08-01T18:58:02.134Z,21.57
2022-08-01T19:00:28.679Z,21.49
2022-08-01T19:02:55.314Z,21.46
2022-08-01T19:05:21.794Z,21.42
2022-08-01T19:08:06.730Z,21.37
2022-08-01T19:10:36.881Z,21.30
2022-08-01T19:13:03.690Z,21.23
2022-08-01T19:15:30.479Z,21.20
2022-08-01T19:17:57.004Z,21.17
2022-08-01T19:20:23.559Z,21.11
2022-08-01T19:22:50.132Z,21.07
2022-08-01T19:25:16.859Z,21.03
2022-08-01T19:27:47.931Z,21.00
2022-08-01T19:30:15.037Z,20.94
2022-08-01T19:32:45.265Z,20.87
2022-08-01T19:35:13.474Z,20.80
2022-08-01T19:37:48.985Z,20.73
2022-08-01T19:40:26.315Z,20.66
2022-08-01T19:42:55.395Z,20.60
2022-08-01T19:45:22.495Z,20.51
2022-08-01T19:47:51.827Z,20.47
2022-08-01T19:50:25.340Z,20.44
2022-08-01T19:52:52.115Z,20.39
2022-08-01T19:55:18.932Z,20.37
2022-08-01T19:57:59.391Z,20.35
2022-08-01T20:00:36.885Z,20.32
2022-08-01T20:03:03.888Z,20.30
2022-08-01T20:05:30.412Z,20.27
2022-08-01T20:07:57.447Z,20.22
2022-08-01T20:10:24.015Z,20.17
2022-08-01T20:12:50.568Z,20.14
2022-08-01T20:15:17.156Z,20.11
2022-08-01T20:17:45.608Z,20.06
2022-08-01T20:20:12.109Z,20.03
2022-08-01T20:22:41.028Z,19.97
2022-08-01T20:25:08.857Z,19.93
2022-08-01T20:27:35.971Z,19.90
2022-08-01T20:30:03.019Z,19.89
2022-08-01T20:32:31.808Z,19.91
2022-08-01T20:34:58.283Z,19.91
2022-08-01T20:38:04.145Z,19.88
2022-08-01T20:40:12.352Z,19.87
2022-08-01T20:42:40.245Z,19.85
2022-08-01T20:45:07.314Z,19.83
2022-08-01T20:47:33.854Z,19.82
2022-08-01T20:50:26.875Z,19.81
2022-08-01T20:52:54.317Z,19.79
2022-08-01T20:55:20.968Z,19.77
2022-08-01T20:57:49.908Z,19.74
2022-08-01T21:00:20.329Z,19.72
2022-08-01T21:02:47.983Z,19.70
2022-08-01T21:05:21.068Z,19.67
2022-08-01T21:07:47.577Z,19.64
2022-08-01T21:10:15.506Z,19.64
2022-08-01T21:12:49.370Z,19.62
2022-08-01T21:15:25.335Z,19.60
2022-08-01T21:17:51.965Z,19.57
2022-08-01T21:20:19.796Z,19.52
2022-08-01T21:22:52.118Z,19.50
2022-08-01T21:25:22.907Z,19.45
2022-08-01T21:27:51.174Z,19.40
2022-08-01T21:30:17.926Z,19.37
2022-08-01T21:32:47.261Z,19.30
2022-08-01T21:35:16.837Z,19.31
2022-08-01T21:37:51.830Z,19.29
2022-08-01T21:40:19.919Z,19.24
2022-08-01T21:42:47.125Z,19.17
2022-08-01T21:45:16.580Z,19.14
2022-08-01T21:47:43.116Z,19.09
2022-08-01T21:50:09.725Z,19.09
2022-08-01T21:52:43.019Z,19.09
2022-08-01T21:55:15.661Z,19.07
2022-08-01T21:58:01.704Z,19.03
2022-08-01T22:00:28.576Z,19.01
2022-08-01T22:02:59.597Z,18.98
2022-08-01T22:05:49.970Z,18.96
2022-08-01T22:08:17.235Z,18.94
2022-08-01T22:10:43.741Z,18.92
2022-08-01T22:13:11.812Z,18.89
2022-08-01T22:15:44.642Z,18.86
2022-08-01T22:18:11.730Z,18.82
2022-08-01T22:20:38.417Z,18.79
2022-08-01T22:23:06.528Z,18.79
2022-08-01T22:25:33.562Z,18.76
2022-08-01T22:28:07.980Z,18.76
2022-08-01T22:30:40.530Z,18.70
2022-08-01T22:33:16.335Z,18.68
2022-08-01T22:35:48.698Z,18.61
2022-08-01T22:38:17.986Z,18.62
2022-08-01T22:41:00.689Z,18.64
2022-08-01T22:43:41.803Z,18.59
2022-08-01T22:46:17.474Z,18.54
2022-08-01T22:48:52.933Z,18.51
2022-08-01T22:51:34.605Z,18.45
2022-08-01T22:54:05.897Z,18.42
2022-08-01T22:56:36.171Z,18.41
2022-08-01T22:59:05.946Z,18.39
2022-08-01T23:01:33.183Z,18.37
2022-08-01T23:04:00.081Z,18.34
2022-08-01T23:06:30.061Z,18.32
2022-08-01T23:09:25.403Z,18.29
2022-08-01T23:12:08.739Z,18.26
2022-08-01T23:14:36.263Z,18.24
2022-08-01T23:17:03.403Z,18.22
2022-08-01T23:19:51.245Z,18.19
2022-08-01T23:22:17.989Z,18.14
2022-08-01T23:24:53.871Z,18.08
2022-08-01T23:27:51.434Z,18.02
2022-08-01T23:30:18.654Z,17.97
2022-08-01T23:32:45.211Z,17.93
2022-08-01T23:35:11.711Z,17.91
2022-08-01T23:37:38.281Z,17.88
2022-08-01T23:40:05.305Z,17.86
2022-08-01T23:42:31.947Z,17.81
2022-08-01T23:44:58.468Z,17.73
2022-08-01T23:47:25.026Z,17.70
2022-08-01T23:49:53.416Z,17.64
2022-08-01T23:52:21.695Z,17.58
2022-08-01T23:54:48.293Z,17.53
2022-08-01T23:57:16.462Z,17.47
2022-08-01T23:59:52.849Z,17.43
